Nearby METAR Reports

 

LELL - Sabadell, Spain
Distance from station: E 18km
Updated: 22/01/2022 11:30
Clear
Clear
 Wind from varies
Wind: varies 7 km/h
Temperature: 7°C
Wind Chill: 6°C
Dew Point: -2°C
Humidity: 53%
Barometer: 1031 hPa
Summary: Clear
Visibility: greater than 10 km
2022/01/22 10:30 LELL 221030Z VRB04KT CAVOK 07/M02 Q1031
LEBL - Barcelona Airpor, Spain
Distance from station: SSE 33km
Updated: 22/01/2022 11:30
Few Clouds
Few Clouds
 Wind from NNW
Wind: NNW 28 km/h
Temperature: 6°C
Wind Chill: 2°C
Dew Point: -2°C
Humidity: 57%
Barometer: 1031 hPa
Clouds: Few Clouds
Visibility: 10 km
Cloud details: Few Clouds 1067 m
2022/01/22 10:30 LEBL 221030Z 33015KT 9999 FEW035 06/M02 Q1031 NOSIG
LERS - Reus (civ/Mil), Spain
Distance from station: SW 75km
Updated: 22/01/2022 11:30
Partly cloudy
Partly cloudy
 Wind from varies
Wind: varies 4 km/h
Temperature: 7°C
Dew Point: -2°C
Humidity: 53%
Barometer: 1032 hPa
Clouds: Partly cloudy
Visibility: 10 km
Cloud details: Partly cloudy 1097 m
2022/01/22 10:30 LERS 221030Z VRB02KT 9999 SCT036 07/M02 Q1032
 
LEGE - Gerona/Costa Bra, Spain
Distance from station: ENE 83km
Updated: 22/01/2022 11:30
Clear
Clear
 Wind from calm
Wind: Calm
Temperature: 8°C
Dew Point: 1°C
Humidity: 62%
Barometer: 1030 hPa
Summary: Clear
Visibility: greater than 10 km
2022/01/22 10:30 LEGE 221030Z 00000KT CAVOK 08/01 Q1030
LFMP - Perpignan/Rivesa, France
Distance from station: NNE 155km
Updated: 22/01/2022 11:30
Clear
Clear
 Wind from NNW
Wind: NNW 20 km/h
Temperature: 11°C
Dew Point: -5°C
Humidity: 32%
Barometer: 1030 hPa
Summary: Clear
Visibility: greater than 10 km
2022/01/22 10:30 LFMP 221030Z AUTO 34011KT 310V010 CAVOK 11/M05 Q1030 NOSIG
LFMK - Carcassonne/Salv, France
Distance from station: N 191km
Updated: 22/01/2022 11:30
Clear
Clear
 Wind from W
Wind: W 20 km/h
Temperature: 4°C
Wind Chill: -1°C
Dew Point: -2°C
Humidity: 65%
Barometer: 1032 hPa
Summary: Clear
Visibility: greater than 10 km
2022/01/22 10:30 LFMK 221030Z AUTO 26011KT 230V300 CAVOK 04/M02 Q1032 NOSIG
 
LEHC - Huesca-Pirineos, Spain
Distance from station: WNW 193km
Updated: 22/01/2022 11:30
Mist, Partly cloudy
Mist, Partly cloudy
 Wind from E
Wind: E 7 km/h
Temperature: -1°C
Wind Chill: -4°C
Dew Point: -1°C
Humidity: 100%
Barometer: 1030 hPa
Summary: Mist
Clouds: Partly cloudy
Visibility: 5 km
Cloud details: Partly cloudy 61 m
2022/01/22 10:30 LEHC 221030Z 09004KT 5000 BR SCT002 M01/M01 Q1030
LFMU - Beziers/Vias, France
Distance from station: NNE 232km
Updated: 22/01/2022 11:30
Clear
Clear
 Wind from W
Wind: W 17 km/h
Temperature: 7°C
Wind Chill: 4°C
Dew Point: -2°C
Humidity: 53%
Barometer: 1030 hPa
Summary: Clear
Visibility: greater than 10 km
2022/01/22 10:30 LFMU 221030Z AUTO 27009KT CAVOK 07/M02 Q1030 NOSIG
LEPA - Palma De Mallorc, Spain
Distance from station: SSE 233km
Updated: 22/01/2022 11:30
Few Clouds
Few Clouds
 Wind from NE
Wind: NE 17 km/h
Temperature: 11°C
Dew Point: 4°C
Humidity: 62%
Barometer: 1031 hPa
Clouds: Few Clouds
Visibility: 10 km
Cloud details: Few Clouds 914 m
2022/01/22 10:30 LEPA 221030Z 05009KT 9999 FEW030 11/04 Q1031 NOSIG
 
LFBO - Toulouse/Blagnac, France
Distance from station: N 236km
Updated: 22/01/2022 11:30
Clear
Clear
 Wind from N
Wind: N 6 km/h
Temperature: 3°C
Dew Point: -2°C
Humidity: 70%
Barometer: 1034 hPa
Summary: Clear
Visibility: greater than 10 km
2022/01/22 10:30 LFBO 221030Z AUTO 35003KT 310V040 CAVOK 03/M02 Q1034 NOSIG
LFBT - Tarbes/Ossun, France
Distance from station: NW 239km
Updated: 22/01/2022 11:30
Clear
Clear
 Wind from varies
Wind: varies 4 km/h
Temperature: 4°C
Dew Point: -2°C
Humidity: 65%
Barometer: 1032 hPa
Summary: Clear
Visibility: greater than 10 km
2022/01/22 10:30 LFBT 221030Z AUTO VRB02KT CAVOK 04/M02 Q1032 NOSIG
LEZG - Zaragoza (mil/Ci, Spain
Distance from station: W 242km
Updated: 22/01/2022 11:30
Clear
Clear
 Wind from NW
Wind: NW 15 km/h
Temperature: 4°C
Wind Chill: 1°C
Dew Point: -3°C
Humidity: 61%
Barometer: 1032 hPa
Summary: Clear
Visibility: greater than 10 km
2022/01/22 10:30 LEZG 221030Z 31008KT CAVOK 04/M03 Q1032